EDDR/SCN METAR and TAF weather

Enter ICAO airport designator
Station Type Date Time Source
EDDR METAR 2020/01/22 15:20 UTC NOAA

EDDR 221520Z 07005KT 050V110 CAVOK 03/M02 Q1032 NOSIG


Station Type Date Time Source
EDDR Decoded METAR 2020/01/22 15:20 UTC NOAA

Saarbruecken / Ensheim, Germany (EDDR) 49-13N 007-07E 320M
Jan 22, 2020 - 10:20 AM EST / 2020.01.22 1520 UTC
Wind: from the ENE (070 degrees) at 6 MPH (5 KT) (direction variable):0
Visibility: greater than 7 mile(s):0
Temperature: 37 F (3 C)
Dew Point: 28 F (-2 C)
Relative Humidity: 69%
Pressure (altimeter): 30.47 in. Hg (1032 hPa)
ob: EDDR 221520Z 07005KT 050V110 CAVOK 03/M02 Q1032 NOSIG
cycle: 15

Station Type Date Time Source
EDDR TAF 2020/01/22 13:33 UTC NOAA

TAF
AMD TAF
AMD EDDR 221328Z 2213/2312 05008KT CAVOK
TEMPO 2219/2224 BKN012
TEMPO 2300/2308 1200 BCFG BKN002

Example: see airport list